< < Back
Terminal Aerodrome Forecast


Current Version              Previous Versions:   1  2  3  4  5  6  7  8  9  

Terminal Aerodrome Forecast

375
FTUS44 KMOB 301700
TAFMOB
TAF
KMOB 301728Z 3018/3118 36005KT P6SM FEW050
     FM311600 03004KT P6SM BKN120=



Latest METAR

861
SAUS80 KWBC 301900 CCA
MTRMOB
METAR KMOB 301856Z 01004KT 10SM FEW050 FEW250 29/13 A3004 RMK AO2 SLP168
T02890133


USA.gov is the U.S. government's official web portal to all federal, state and local government web resources and services.